Time;durP1;ratioP1;P1;durP2;ratioP2;P2;SDS_P1;SDS_P2;PMS_P1;PMS_P2;Temp;Humidity;BMP_temperature;BMP_pressure;BME280_temperature;BME280_humidity;BME280_pressure;Samples;Min_cycle;Max_cycle;Signal;HPM_P1;HPM_P2
2023/07/03 00:00:30;;;;;;;;;24.00;23.40;;;;;20.65;69.01;98960.59;4911951;29;8886;-77
2023/07/03 00:03:19;;;;;;;;;27.60;25.40;;;;;20.64;69.41;98961.56;4917513;29;8935;-77
2023/07/03 00:05:48;;;;;;;;;25.80;24.00;;;;;20.57;67.61;98962.97;4918847;29;8902;-76
2023/07/03 00:08:19;;;;;;;;;21.20;19.80;;;;;20.53;67.43;98965.00;4911727;29;8868;-76
2023/07/03 00:10:47;;;;;;;;;24.00;23.00;;;;;20.47;66.88;98962.78;4911678;29;8898;-75
2023/07/03 00:13:17;;;;;;;;;21.80;20.60;;;;;20.33;67.42;98970.91;4913035;29;8852;-74
2023/07/03 00:15:47;;;;;;;;;20.80;20.80;;;;;20.40;68.66;98966.84;4916117;29;8891;-77
2023/07/03 00:18:16;;;;;;;;;24.00;22.00;;;;;19.89;66.56;98957.88;4915959;29;8894;-75
2023/07/03 00:20:46;;;;;;;;;17.40;17.20;;;;;19.80;66.84;98968.31;4915794;29;8887;-75
2023/07/03 00:23:15;;;;;;;;;19.20;19.20;;;;;20.06;67.13;98964.69;4916166;29;8914;-76
2023/07/03 00:25:43;;;;;;;;;19.20;18.80;;;;;19.70;65.98;98970.75;4915844;29;8879;-77
2023/07/03 00:28:12;;;;;;;;;11.40;10.00;;;;;19.56;67.27;98971.72;4914703;29;8860;-76
2023/07/03 00:30:41;;;;;;;;;22.20;20.20;;;;;19.68;67.56;98978.00;4915840;29;9005;-76
2023/07/03 00:33:11;;;;;;;;;19.80;19.80;;;;;19.79;66.51;98966.63;4915832;29;8851;-74
2023/07/03 00:35:40;;;;;;;;;21.20;20.00;;;;;19.89;68.24;98976.53;4897909;29;9013;-76
2023/07/03 00:38:09;;;;;;;;;23.40;21.80;;;;;19.89;67.33;98975.69;4914263;29;8875;-74
2023/07/03 00:40:38;;;;;;;;;21.60;21.00;;;;;19.99;67.68;98973.22;4914250;29;8883;-76
2023/07/03 00:43:07;;;;;;;;;16.80;16.80;;;;;19.82;65.85;98983.28;4914397;29;8899;-78
2023/07/03 00:45:37;;;;;;;;;16.00;16.00;;;;;19.85;65.82;98982.19;4913611;29;8875;-76
2023/07/03 00:48:07;;;;;;;;;19.60;19.60;;;;;19.87;65.10;98986.47;4915268;29;8897;-74
2023/07/03 00:50:37;;;;;;;;;16.80;16.00;;;;;20.01;66.82;98985.53;4930392;29;9042;-77
2023/07/03 00:53:06;;;;;;;;;17.00;16.40;;;;;20.08;66.46;98978.81;4915384;29;8958;-76
2023/07/03 00:55:37;;;;;;;;;21.00;20.20;;;;;20.20;66.90;98990.44;4920316;29;8863;-76
2023/07/03 00:58:06;;;;;;;;;19.00;18.40;;;;;20.17;65.43;98992.47;4921359;29;8871;-74
2023/07/03 01:00:43;;;;;;;;;16.60;16.40;;;;;20.20;66.25;98992.22;4913090;29;9768;-76
2023/07/03 01:03:19;;;;;;;;;21.60;19.60;;;;;20.29;67.36;98996.97;4912854;29;8865;-76
2023/07/03 01:05:52;;;;;;;;;19.60;19.60;;;;;20.32;67.55;98993.25;4915043;29;9656;-76
2023/07/03 01:08:23;;;;;;;;;21.60;18.80;;;;;20.28;66.11;98995.28;4914997;29;8867;-76
2023/07/03 01:10:52;;;;;;;;;17.60;17.40;;;;;19.90;65.75;99001.41;4913545;29;8942;-75
2023/07/03 01:13:25;;;;;;;;;17.20;14.60;;;;;19.96;65.09;98992.13;4913798;29;8901;-74
2023/07/03 01:15:55;;;;;;;;;22.20;19.80;;;;;20.00;66.22;98994.47;4913335;29;9602;-76
2023/07/03 01:18:25;;;;;;;;;19.80;18.80;;;;;20.09;66.57;98998.34;4897276;29;8890;-76
2023/07/03 01:21:02;;;;;;;;;20.20;18.60;;;;;20.14;67.38;98996.22;4911236;29;9010;-75
2023/07/03 01:23:37;;;;;;;;;18.80;17.60;;;;;19.99;65.86;98998.13;4913851;29;8863;-75
2023/07/03 01:26:11;;;;;;;;;18.40;18.40;;;;;20.06;67.40;99003.88;4913156;29;8887;-76
2023/07/03 01:28:42;;;;;;;;;22.20;21.40;;;;;20.06;66.77;99014.53;4913479;29;8863;-78
2023/07/03 01:31:14;;;;;;;;;18.80;18.80;;;;;20.02;66.64;99005.91;4910393;29;8882;-76
2023/07/03 01:33:45;;;;;;;;;18.40;17.20;;;;;20.05;67.26;99016.38;4914158;29;8885;-75
2023/07/03 01:36:15;;;;;;;;;18.20;18.20;;;;;20.00;65.28;99017.66;4901628;29;8896;-74
2023/07/03 01:38:46;;;;;;;;;19.20;18.00;;;;;19.95;65.81;99020.59;4895150;29;8977;-75
2023/07/03 01:41:19;;;;;;;;;20.20;17.80;;;;;19.96;65.84;99022.34;4914397;29;8913;-76
2023/07/03 01:43:49;;;;;;;;;18.20;18.00;;;;;19.96;65.71;99021.47;4914784;29;8870;-77
2023/07/03 01:46:17;;;;;;;;;21.40;20.00;;;;;19.91;64.68;99016.44;4914616;29;8883;-75
2023/07/03 01:48:46;;;;;;;;;16.40;15.80;;;;;19.86;64.36;99022.09;4917072;29;8894;-76
2023/07/03 01:51:21;;;;;;;;;15.00;15.00;;;;;19.88;64.98;99019.34;4920995;29;8911;-75
2023/07/03 01:54:05;;;;;;;;;17.80;16.80;;;;;19.95;66.11;99028.59;4916209;29;8859;-76
2023/07/03 01:56:38;;;;;;;;;18.80;18.20;;;;;19.98;66.84;99024.91;4910837;29;8886;-75
2023/07/03 01:59:11;;;;;;;;;19.00;17.40;;;;;19.86;64.84;99026.59;4928954;29;8875;-75
2023/07/03 02:01:49;;;;;;;;;22.40;20.20;;;;;19.93;67.07;99024.34;4928667;29;8889;-75
2023/07/03 02:04:28;;;;;;;;;17.60;16.80;;;;;19.70;63.73;99018.75;4914444;29;8879;-73
2023/07/03 02:06:59;;;;;;;;;14.00;13.60;;;;;18.86;64.09;99017.97;4914115;29;8891;-76
2023/07/03 02:09:30;;;;;;;;;15.40;15.00;;;;;18.38;64.81;99025.38;4928362;29;8875;-76
2023/07/03 02:12:05;;;;;;;;;16.00;14.60;;;;;18.19;64.26;99028.31;4877818;29;8893;-75
2023/07/03 02:14:36;;;;;;;;;12.80;12.00;;;;;18.06;65.10;99025.59;4887529;29;8993;-76
2023/07/03 02:17:07;;;;;;;;;13.00;12.40;;;;;18.12;64.21;99021.69;4892459;29;8891;-75
2023/07/03 02:19:36;;;;;;;;;13.80;13.60;;;;;18.49;63.87;99020.25;4876722;29;8906;-75
2023/07/03 02:22:05;;;;;;;;;15.20;14.40;;;;;18.12;62.58;99030.53;4892202;29;8914;-75
2023/07/03 02:24:35;;;;;;;;;13.60;13.60;;;;;18.22;62.98;99030.81;4876735;29;8914;-75
2023/07/03 02:27:05;;;;;;;;;13.40;13.40;;;;;18.35;62.49;99023.78;4876811;29;8876;-75
2023/07/03 02:29:34;;;;;;;;;14.60;13.40;;;;;18.57;62.17;99025.09;4892167;29;8871;-76
2023/07/03 02:32:08;;;;;;;;;13.80;11.60;;;;;18.52;61.60;99028.06;4891007;29;8895;-76
2023/07/03 02:34:37;;;;;;;;;15.20;14.00;;;;;18.45;61.95;99031.22;4891963;29;9030;-75
2023/07/03 02:37:08;;;;;;;;;15.00;12.80;;;;;18.27;63.31;99035.84;4891847;29;8899;-74
2023/07/03 02:39:37;;;;;;;;;14.00;12.80;;;;;18.23;62.33;99035.19;4876327;29;8903;-78
2023/07/03 02:42:08;;;;;;;;;12.20;12.20;;;;;17.93;62.30;99033.41;4876434;29;8883;-74
2023/07/03 02:44:37;;;;;;;;;16.40;16.40;;;;;17.69;64.18;99037.50;4832281;29;8878;-74
2023/07/03 02:47:06;;;;;;;;;11.00;10.40;;;;;17.60;64.30;99040.69;4913131;29;9742;-76
2023/07/03 02:49:36;;;;;;;;;10.00;10.00;;;;;17.56;63.36;99043.53;4911614;29;8883;-74
2023/07/03 02:52:08;;;;;;;;;13.40;13.00;;;;;18.01;62.28;99034.75;4895999;29;9005;-74
2023/07/03 02:54:37;;;;;;;;;14.40;14.40;;;;;18.15;62.37;99032.97;4864840;29;8879;-77
2023/07/03 02:57:09;;;;;;;;;11.00;11.00;;;;;18.26;61.99;99027.00;4927185;29;8898;-75
2023/07/03 02:59:38;;;;;;;;;11.80;11.60;;;;;18.48;61.38;99021.22;4911575;29;9455;-78
2023/07/03 03:02:07;;;;;;;;;13.00;10.80;;;;;18.61;60.67;99026.66;4926255;29;9073;-75
2023/07/03 03:04:36;;;;;;;;;13.80;13.80;;;;;18.51;60.51;99029.00;4911970;29;8890;-74
2023/07/03 03:07:05;;;;;;;;;15.20;14.00;;;;;18.52;60.31;99032.53;4927282;29;9625;-75
2023/07/03 03:09:34;;;;;;;;;11.20;11.20;;;;;18.39;60.27;99035.09;4912924;29;8942;-73
2023/07/03 03:12:03;;;;;;;;;9.00;9.00;;;;;18.30;59.58;99046.31;4926090;29;9648;-75
2023/07/03 03:14:35;;;;;;;;;10.80;10.80;;;;;18.25;60.14;99043.94;4910611;29;8914;-73
2023/07/03 03:17:03;;;;;;;;;13.60;12.60;;;;;18.12;60.19;99041.16;4913075;29;8986;-77
2023/07/03 03:19:32;;;;;;;;;11.60;11.60;;;;;17.94;61.32;99047.53;4913308;29;8886;-77
2023/07/03 03:22:01;;;;;;;;;12.20;11.40;;;;;17.98;63.00;99044.59;4914845;29;9040;-74
2023/07/03 03:24:30;;;;;;;;;19.20;19.20;;;;;18.11;64.85;99051.88;4926383;29;8886;-75
2023/07/03 03:27:05;;;;;;;;;23.00;21.80;;;;;18.65;65.66;99052.13;4893792;29;8898;-75
2023/07/03 03:29:38;;;;;;;;;26.20;20.00;;;;;18.98;65.87;99055.44;4908380;29;8858;-75
2023/07/03 03:32:08;;;;;;;;;20.80;20.80;;;;;19.21;65.36;99056.63;4893927;29;8862;-75
2023/07/03 03:34:37;;;;;;;;;22.20;21.20;;;;;19.42;65.55;99049.88;4926144;29;8875;-75
2023/07/03 03:37:06;;;;;;;;;24.60;23.80;;;;;19.62;65.78;99058.44;4912030;29;8863;-74
2023/07/03 03:39:36;;;;;;;;;26.60;25.20;;;;;19.78;65.10;99043.09;4915743;29;8919;-74
2023/07/03 03:42:06;;;;;;;;;18.40;18.40;;;;;19.93;65.17;99051.88;4928532;29;8871;-74
2023/07/03 03:44:37;;;;;;;;;21.00;20.40;;;;;20.09;64.53;99049.03;4910918;29;8855;-75
2023/07/03 03:47:06;;;;;;;;;70.75;54.00;;;;;20.08;62.61;99056.19;4926166;29;8875;-75
2023/07/03 03:49:39;;;;;;;;;33.80;30.20;;;;;19.73;62.09;99063.91;4926744;29;8894;-74
2023/07/03 03:52:08;;;;;;;;;21.20;20.80;;;;;19.87;61.75;99047.81;4926392;29;8899;-74
2023/07/03 03:54:37;;;;;;;;;18.20;17.80;;;;;19.88;61.10;99059.34;4909908;29;8875;-74
2023/07/03 03:57:07;;;;;;;;;25.40;22.80;;;;;19.83;61.49;99064.97;4926264;29;8879;-75
2023/07/03 03:59:38;;;;;;;;;23.60;21.60;;;;;19.96;60.97;99058.84;4926468;29;8962;-74
2023/07/03 04:02:07;;;;;;;;;23.40;23.00;;;;;19.81;60.62;99063.38;4926325;29;8867;-76
2023/07/03 04:04:36;;;;;;;;;20.60;19.80;;;;;18.87;61.38;99069.44;4909792;29;8875;-75
2023/07/03 04:07:06;;;;;;;;;14.00;14.00;;;;;18.28;62.25;99080.97;4909872;29;8894;-75
2023/07/03 04:09:35;;;;;;;;;11.20;11.20;;;;;18.26;61.01;99079.38;4911867;29;8894;-75
2023/07/03 04:12:04;;;;;;;;;16.40;13.20;;;;;18.34;60.63;99080.59;4909429;29;8887;-76
2023/07/03 04:14:33;;;;;;;;;12.40;12.40;;;;;18.74;59.27;99071.97;4918130;29;10264;-74
2023/07/03 04:17:05;;;;;;;;;10.20;10.20;;;;;19.02;57.14;99073.78;4927483;29;8879;-75
2023/07/03 04:19:34;;;;;;;;;14.00;14.00;;;;;18.96;57.00;99070.66;4911691;29;9097;-76
2023/07/03 04:22:02;;;;;;;;;10.00;9.60;;;;;18.63;56.98;99075.31;4911784;29;8871;-74
2023/07/03 04:24:31;;;;;;;;;12.60;11.40;;;;;18.43;57.28;99067.69;4910721;29;8851;-77
2023/07/03 04:27:00;;;;;;;;;10.60;10.40;;;;;18.47;58.02;99071.88;4911969;29;8871;-76
2023/07/03 04:29:29;;;;;;;;;15.40;15.40;;;;;18.42;58.50;99072.19;4910081;29;8898;-75
2023/07/03 04:31:58;;;;;;;;;15.00;14.00;;;;;18.90;58.98;99075.41;4913340;29;8970;-76
2023/07/03 04:34:28;;;;;;;;;16.60;16.60;;;;;19.33;58.68;99083.34;4914915;29;8848;-77
2023/07/03 04:36:57;;;;;;;;;47.75;39.00;;;;;19.59;59.43;99087.94;4911090;29;8863;-74
2023/07/03 04:39:26;;;;;;;;;22.60;20.60;;;;;19.91;57.80;99091.13;4911152;29;8926;-75
2023/07/03 04:41:56;;;;;;;;;34.60;32.20;;;;;19.88;57.35;99092.22;4912543;29;8887;-74
2023/07/03 04:44:25;;;;;;;;;18.80;17.20;;;;;19.96;56.69;99090.84;4909017;29;9609;-75
2023/07/03 04:46:55;;;;;;;;;18.60;17.40;;;;;19.58;57.67;99086.25;4910667;29;8859;-75
2023/07/03 04:49:26;;;;;;;;;15.60;15.60;;;;;20.00;57.19;99090.53;4909856;29;8981;-76
2023/07/03 04:51:56;;;;;;;;;18.60;17.00;;;;;20.34;57.24;99093.59;4911345;29;8895;-75
2023/07/03 04:54:27;;;;;;;;;19.00;19.00;;;;;20.49;55.72;99094.34;4911370;29;8863;-75
2023/07/03 04:56:57;;;;;;;;;23.40;21.40;;;;;20.54;56.36;99097.56;4911570;29;8883;-76
2023/07/03 04:59:26;;;;;;;;;22.00;21.40;;;;;21.01;56.90;99100.53;4913612;29;8875;-77
2023/07/03 05:01:54;;;;;;;;;18.20;17.80;;;;;21.04;55.65;99100.31;4914152;29;8950;-75
2023/07/03 05:04:23;;;;;;;;;19.40;19.40;;;;;21.43;56.50;99107.25;4921987;29;8887;-75
2023/07/03 05:06:52;;;;;;;;;24.80;23.20;;;;;21.78;58.00;99100.28;4923729;29;8883;-74
2023/07/03 05:09:22;;;;;;;;;18.20;16.40;;;;;22.12;53.75;99113.81;4918770;29;8914;-75
2023/07/03 05:11:51;;;;;;;;;18.80;17.00;;;;;21.91;51.16;99108.25;4916625;29;8875;-78
2023/07/03 05:14:21;;;;;;;;;22.20;19.00;;;;;21.86;49.91;99119.28;4914692;29;8891;-75
2023/07/03 05:16:49;;;;;;;;;18.00;17.00;;;;;21.71;50.19;99126.66;4908453;29;8996;-75
2023/07/03 05:19:18;;;;;;;;;14.20;14.20;;;;;21.94;50.61;99124.09;4895655;29;8988;-75
2023/07/03 05:21:47;;;;;;;;;12.80;12.00;;;;;20.74;49.14;99146.06;4895162;29;8968;-77
2023/07/03 05:24:16;;;;;;;;;12.20;12.20;;;;;20.39;50.62;99136.00;4895824;29;8877;-77
2023/07/03 05:26:46;;;;;;;;;15.60;14.20;;;;;20.07;50.86;99141.66;4896904;29;8882;-78
2023/07/03 05:29:15;;;;;;;;;12.20;11.60;;;;;19.66;51.99;99140.78;4899217;29;9032;-76
2023/07/03 05:31:45;;;;;;;;;14.00;14.00;;;;;19.55;52.38;99139.75;4916239;29;10069;-75
2023/07/03 05:34:14;;;;;;;;;11.80;10.60;;;;;19.59;53.17;99130.59;4896162;29;8986;-77
2023/07/03 05:36:43;;;;;;;;;14.20;14.20;;;;;19.49;52.73;99128.50;4913959;29;8898;-76
2023/07/03 05:39:13;;;;;;;;;16.60;16.60;;;;;19.58;51.91;99128.91;4913340;29;8949;-75
2023/07/03 05:41:42;;;;;;;;;17.40;16.20;;;;;19.84;52.53;99128.03;4914663;29;8877;-78
2023/07/03 05:44:12;;;;;;;;;14.40;14.40;;;;;19.81;52.65;99122.91;4913686;29;8985;-76
2023/07/03 05:46:41;;;;;;;;;19.60;19.40;;;;;19.80;52.35;99113.22;4910440;29;8901;-75
2023/07/03 05:49:11;;;;;;;;;15.40;12.80;;;;;19.75;51.90;99119.81;4913469;29;8899;-74
2023/07/03 05:51:40;;;;;;;;;13.20;13.20;;;;;19.63;51.12;99119.66;4913550;29;9026;-80
2023/07/03 05:54:09;;;;;;;;;12.60;12.20;;;;;20.17;50.75;99124.06;4914077;29;8867;-77
2023/07/03 05:56:38;;;;;;;;;15.00;15.00;;;;;20.70;50.63;99131.19;4928128;29;8874;-76
2023/07/03 05:59:07;;;;;;;;;21.00;19.20;;;;;21.04;51.02;99132.38;4927819;29;8922;-77
2023/07/03 06:01:37;;;;;;;;;18.20;16.60;;;;;20.63;51.25;99141.44;4913835;29;9687;-73
2023/07/03 06:04:06;;;;;;;;;16.60;16.60;;;;;21.13;50.71;99145.09;4928073;29;8987;-75
2023/07/03 06:06:35;;;;;;;;;15.80;15.80;;;;;21.46;49.27;99148.97;4913646;29;8891;-77
2023/07/03 06:09:04;;;;;;;;;18.40;16.40;;;;;21.73;51.13;99148.81;4913132;29;9034;-75
2023/07/03 06:11:32;;;;;;;;;18.20;17.00;;;;;21.95;48.87;99149.88;4926006;29;8882;-76
2023/07/03 06:14:02;;;;;;;;;21.40;18.00;;;;;21.33;48.35;99150.81;4913312;29;8851;-78
2023/07/03 06:16:34;;;;;;;;;13.40;12.40;;;;;20.57;48.28;99160.56;4913001;29;8950;-71
2023/07/03 06:19:05;;;;;;;;;12.80;11.40;;;;;20.92;51.19;99152.81;4913135;29;8856;-72
2023/07/03 06:21:33;;;;;;;;;15.00;14.40;;;;;21.24;49.02;99155.03;4910371;29;8906;-73
2023/07/03 06:24:02;;;;;;;;;17.40;16.00;;;;;21.42;49.58;99159.00;4912337;29;8978;-73
2023/07/03 06:26:33;;;;;;;;;16.40;15.00;;;;;21.50;50.04;99168.31;4914673;29;9028;-73
2023/07/03 06:29:02;;;;;;;;;18.00;15.60;;;;;20.76;50.00;99176.19;4914215;29;8954;-74
2023/07/03 06:31:31;;;;;;;;;14.60;13.80;;;;;20.55;50.16;99190.03;4913054;29;8917;-71
2023/07/03 06:34:01;;;;;;;;;18.80;18.80;;;;;20.37;51.21;99188.63;4913061;29;8989;-75
2023/07/03 06:36:33;;;;;;;;;17.40;15.40;;;;;20.74;51.08;99173.59;4926882;29;8918;-76
2023/07/03 06:39:04;;;;;;;;;16.80;15.80;;;;;20.66;50.99;99182.16;4912665;29;8914;-77
2023/07/03 06:41:35;;;;;;;;;15.40;15.00;;;;;20.52;51.29;99176.91;4912635;29;8921;-75
2023/07/03 06:44:05;;;;;;;;;16.20;16.20;;;;;21.02;50.44;99185.94;4912393;29;8867;-76
2023/07/03 06:46:34;;;;;;;;;17.00;16.00;;;;;21.04;49.40;99183.16;4911919;29;8916;-76
2023/07/03 06:49:04;;;;;;;;;13.00;13.00;;;;;20.44;49.15;99168.56;4912513;29;8879;-76
2023/07/03 06:51:34;;;;;;;;;16.00;15.40;;;;;20.71;50.68;99175.63;4912204;29;8972;-74
2023/07/03 06:54:03;;;;;;;;;19.20;15.80;;;;;20.74;50.12;99172.75;4912653;29;8956;-76
2023/07/03 06:56:31;;;;;;;;;17.60;17.40;;;;;20.93;51.28;99172.38;4915811;29;8948;-74
2023/07/03 06:59:01;;;;;;;;;17.20;15.60;;;;;21.41;49.47;99178.72;4929680;29;8895;-75
2023/07/03 07:01:29;;;;;;;;;17.80;16.80;;;;;21.64;48.58;99176.22;4910295;29;8946;-74
2023/07/03 07:03:59;;;;;;;;;16.80;15.20;;;;;21.81;46.67;99180.34;4912550;29;8875;-75
2023/07/03 07:06:30;;;;;;;;;16.40;16.20;;;;;21.37;47.16;99171.88;4913345;29;8867;-78
2023/07/03 07:09:03;;;;;;;;;17.20;15.40;;;;;21.16;46.22;99176.97;4927517;29;8883;-74
2023/07/03 07:11:35;;;;;;;;;16.80;16.00;;;;;20.78;46.22;99180.44;4912807;29;8888;-76
2023/07/03 07:14:06;;;;;;;;;17.20;16.20;;;;;20.74;46.92;99186.97;4912667;29;8929;-75
2023/07/03 07:16:36;;;;;;;;;16.00;15.00;;;;;20.65;48.39;99188.47;4913558;29;8913;-73
2023/07/03 07:19:07;;;;;;;;;18.00;16.00;;;;;20.92;48.94;99189.34;4914114;29;8879;-75
2023/07/03 07:21:39;;;;;;;;;14.80;14.60;;;;;20.99;47.95;99196.84;4925859;29;8866;-73
2023/07/03 07:24:17;;;;;;;;;12.40;10.80;;;;;20.49;48.32;99179.78;4927489;29;8871;-77
2023/07/03 07:26:47;;;;;;;;;12.40;12.40;;;;;20.82;48.19;99189.97;4912783;29;8986;-75
2023/07/03 07:29:16;;;;;;;;;11.80;10.20;;;;;20.87;48.44;99187.81;4926679;29;8898;-78
2023/07/03 07:31:45;;;;;;;;;15.00;15.00;;;;;20.62;48.68;99190.50;4912926;29;8898;-74
2023/07/03 07:34:14;;;;;;;;;14.40;13.20;;;;;21.00;47.75;99185.19;4926832;29;9660;-75
2023/07/03 07:36:42;;;;;;;;;14.20;14.20;;;;;21.58;47.45;99182.84;4912482;29;8989;-75
2023/07/03 07:39:11;;;;;;;;;13.20;12.60;;;;;22.00;44.64;99178.00;4911909;29;8895;-74
2023/07/03 07:41:41;;;;;;;;;14.60;14.20;;;;;21.95;43.58;99185.50;4912169;29;8871;-75
2023/07/03 07:44:10;;;;;;;;;15.60;15.60;;;;;22.21;43.52;99186.22;4909712;29;8994;-74
2023/07/03 07:46:39;;;;;;;;;16.80;16.60;;;;;21.48;45.73;99183.63;4912439;29;9018;-74
2023/07/03 07:49:08;;;;;;;;;17.40;17.40;;;;;22.11;46.21;99176.31;4912093;29;8910;-76
2023/07/03 07:51:39;;;;;;;;;12.80;12.40;;;;;21.57;44.50;99190.97;4912194;29;8872;-78
2023/07/03 07:54:08;;;;;;;;;12.00;12.00;;;;;21.50;44.43;99185.19;4912261;29;8867;-75
2023/07/03 07:56:36;;;;;;;;;17.00;15.80;;;;;21.40;43.43;99182.34;4912068;29;8878;-77
2023/07/03 07:59:07;;;;;;;;;15.80;15.80;;;;;21.48;43.49;99184.47;4912151;29;8883;-77
2023/07/03 08:01:36;;;;;;;;;13.20;13.00;;;;;21.56;43.77;99190.13;4911777;29;8891;-73
2023/07/03 08:04:05;;;;;;;;;13.60;13.60;;;;;22.00;43.47;99182.50;4911548;29;8867;-76
2023/07/03 08:06:34;;;;;;;;;17.40;16.20;;;;;22.56;44.10;99193.47;4912044;29;8879;-72
2023/07/03 08:09:04;;;;;;;;;12.40;11.80;;;;;22.00;42.71;99201.25;4912573;29;8886;-76
2023/07/03 08:11:32;;;;;;;;;14.40;14.00;;;;;22.68;43.09;99191.66;4912765;29;8895;-74
2023/07/03 08:14:01;;;;;;;;;15.20;15.00;;;;;22.94;41.49;99196.81;4897433;29;8887;-73
2023/07/03 08:16:31;;;;;;;;;16.00;16.00;;;;;22.75;41.94;99194.69;4895803;29;8938;-77
2023/07/03 08:19:00;;;;;;;;;16.40;15.00;;;;;22.72;41.97;99185.09;4894757;29;9688;-75
2023/07/03 08:21:29;;;;;;;;;16.60;16.60;;;;;22.77;42.54;99198.13;4926112;29;8882;-75
2023/07/03 08:23:58;;;;;;;;;16.40;14.20;;;;;22.91;42.87;99194.41;4911831;29;8979;-75
2023/07/03 08:26:26;;;;;;;;;15.00;15.00;;;;;23.40;41.84;99190.50;4910451;29;8985;-75
2023/07/03 08:28:55;;;;;;;;;12.20;11.80;;;;;23.74;42.12;99194.03;4911052;29;8855;-73
2023/07/03 08:31:24;;;;;;;;;17.00;15.60;;;;;23.87;39.64;99190.34;4911515;29;8933;-80
2023/07/03 08:33:55;;;;;;;;;16.00;15.00;;;;;23.57;39.19;99199.91;4913073;29;8887;-81
2023/07/03 08:36:24;;;;;;;;;19.40;17.80;;;;;22.40;41.55;99206.31;4915282;29;8867;-75
2023/07/03 08:38:55;;;;;;;;;11.60;11.60;;;;;22.55;42.44;99202.44;4915086;29;8950;-76
2023/07/03 08:41:24;;;;;;;;;15.20;15.20;;;;;23.07;41.21;99197.59;4915060;29;8867;-77
2023/07/03 08:43:57;;;;;;;;;12.40;11.80;;;;;22.82;40.80;99193.25;4921226;29;8917;-76
2023/07/03 08:46:28;;;;;;;;;15.00;15.00;;;;;23.24;41.98;99188.19;4916071;29;8930;-76
2023/07/03 08:49:03;;;;;;;;;16.20;16.20;;;;;22.68;40.99;99196.16;4914417;29;9664;-75
2023/07/03 08:51:37;;;;;;;;;15.40;15.40;;;;;22.41;41.92;99192.81;4929263;29;8886;-77
2023/07/03 08:54:15;;;;;;;;;16.40;14.60;;;;;23.07;41.52;99189.56;4914521;29;8953;-74
2023/07/03 08:56:44;;;;;;;;;20.80;17.40;;;;;22.91;41.38;99195.25;4915079;29;8966;-79
2023/07/03 08:59:13;;;;;;;;;18.20;16.60;;;;;22.61;41.97;99185.06;4914711;29;8902;-75
2023/07/03 09:01:51;;;;;;;;;17.20;16.60;;;;;22.66;41.73;99188.25;4915555;29;8955;-75
2023/07/03 09:04:44;;;;;;;;;15.60;15.00;;;;;22.95;40.81;99187.81;4915038;29;8871;-77
2023/07/03 09:07:19;;;;;;;;;15.20;14.80;;;;;22.17;41.91;99186.59;4918545;29;8925;-75
2023/07/03 09:09:58;;;;;;;;;15.60;15.60;;;;;22.39;41.74;99188.50;4918827;29;8902;-77
2023/07/03 09:12:31;;;;;;;;;16.40;14.80;;;;;22.84;41.68;99182.41;4915326;29;8872;-75
2023/07/03 09:15:07;;;;;;;;;18.80;18.40;;;;;23.38;41.46;99182.59;4929209;29;8982;-74
2023/07/03 09:17:38;;;;;;;;;17.40;16.00;;;;;23.28;40.70;99183.44;4913204;29;8883;-78
2023/07/03 09:20:11;;;;;;;;;14.80;14.80;;;;;23.07;39.92;99186.88;4914098;29;8872;-77
2023/07/03 09:22:47;;;;;;;;;14.80;14.20;;;;;22.63;40.54;99188.47;4914415;29;8899;-76
2023/07/03 09:25:22;;;;;;;;;15.00;14.00;;;;;23.05;40.96;99186.13;4914512;29;8879;-77
2023/07/03 09:27:55;;;;;;;;;14.80;14.20;;;;;23.00;40.03;99194.53;4914137;29;8879;-73
2023/07/03 09:30:24;;;;;;;;;14.80;14.80;;;;;23.51;40.56;99195.88;4930765;29;9620;-73
2023/07/03 09:32:53;;;;;;;;;17.80;17.80;;;;;23.44;39.67;99191.13;4930487;29;9020;-76
2023/07/03 09:35:25;;;;;;;;;18.00;16.40;;;;;23.66;39.22;99199.19;4930714;29;8874;-75
2023/07/03 09:38:01;;;;;;;;;9.80;9.60;;;;;23.07;40.14;99189.56;4914719;29;8885;-75
2023/07/03 09:40:35;;;;;;;;;15.00;15.00;;;;;22.49;40.58;99199.41;4930175;29;8852;-76
2023/07/03 09:43:12;;;;;;;;;13.40;13.40;;;;;22.54;40.98;99191.84;4930243;29;8882;-76
2023/07/03 09:45:41;;;;;;;;;15.80;15.80;;;;;22.71;40.54;99185.19;4944910;28;8878;-75
2023/07/03 09:48:18;;;;;;;;;13.20;13.00;;;;;22.38;40.87;99187.66;4921767;29;8924;-78
2023/07/03 09:50:48;;;;;;;;;13.80;13.80;;;;;22.85;40.00;99187.66;4929777;29;8865;-77
2023/07/03 09:53:38;;;;;;;;;13.40;13.00;;;;;23.38;39.42;99189.78;4929959;29;9011;-75
2023/07/03 09:56:14;;;;;;;;;14.60;12.60;;;;;23.27;38.66;99193.31;4930006;29;8898;-76
2023/07/03 09:58:47;;;;;;;;;13.60;12.40;;;;;22.99;38.91;99194.66;4930023;29;8902;-75
2023/07/03 10:01:20;;;;;;;;;13.40;12.80;;;;;23.55;39.07;99189.31;4925306;29;8871;-76
2023/07/03 10:04:05;;;;;;;;;13.00;13.00;;;;;24.29;38.90;99187.78;4916411;29;8946;-76
2023/07/03 10:07:00;;;;;;;;;12.60;12.60;;;;;23.80;37.57;99191.81;4914044;29;9648;-76
2023/07/03 10:09:33;;;;;;;;;15.20;12.40;;;;;23.13;37.50;99193.59;4913284;29;9018;-75
2023/07/03 10:12:11;;;;;;;;;15.20;14.00;;;;;22.97;38.28;99196.59;4913832;29;8887;-76
2023/07/03 10:14:51;;;;;;;;;11.80;11.60;;;;;23.00;37.99;99191.84;4928178;29;8958;-74
2023/07/03 10:17:25;;;;;;;;;13.40;12.80;;;;;23.83;37.93;99186.19;4913854;29;8990;-76
2023/07/03 10:19:58;;;;;;;;;12.80;12.60;;;;;24.09;36.05;99194.78;4927906;29;8856;-77
2023/07/03 10:22:29;;;;;;;;;14.40;13.40;;;;;24.43;35.65;99202.72;4913055;29;8889;-76
2023/07/03 10:25:04;;;;;;;;;7.40;7.40;;;;;24.69;35.49;99187.91;4897112;29;8887;-76
2023/07/03 10:27:35;;;;;;;;;12.60;12.60;;;;;25.01;34.37;99183.47;4916050;29;8875;-75
2023/07/03 10:30:11;;;;;;;;;21.60;19.60;;;;;25.28;35.15;99178.34;4913104;29;8871;-75
2023/07/03 10:32:40;;;;;;;;;18.40;14.80;;;;;25.35;34.10;99185.91;4917641;29;8848;-75
2023/07/03 10:35:17;;;;;;;;;13.60;13.40;;;;;25.79;34.71;99184.59;4913325;29;8875;-74
2023/07/03 10:37:55;;;;;;;;;22.60;22.20;;;;;25.23;35.05;99183.28;4911368;29;8895;-75
2023/07/03 10:40:32;;;;;;;;;14.00;13.80;;;;;25.52;33.57;99182.56;4913049;29;8872;-76
2023/07/03 10:43:04;;;;;;;;;14.60;13.00;;;;;25.73;33.52;99184.31;4910524;29;9617;-73
2023/07/03 10:45:38;;;;;;;;;12.40;11.40;;;;;25.35;33.94;99167.91;4913064;29;8963;-77
2023/07/03 10:48:11;;;;;;;;;12.80;11.80;;;;;25.82;33.80;99165.47;4912968;29;8867;-75
2023/07/03 10:50:57;;;;;;;;;12.40;12.00;;;;;24.82;34.86;99187.75;4912875;29;8868;-74
2023/07/03 10:53:35;;;;;;;;;13.60;13.60;;;;;24.54;35.40;99182.00;4912809;29;8910;-75
2023/07/03 10:56:12;;;;;;;;;13.20;13.00;;;;;25.18;34.48;99172.06;4913051;29;8871;-76
2023/07/03 10:58:45;;;;;;;;;16.00;16.00;;;;;25.44;34.74;99180.56;4913030;29;8875;-72
2023/07/03 11:01:20;;;;;;;;;11.00;10.80;;;;;25.79;34.49;99164.91;4911869;29;8909;-74
2023/07/03 11:03:57;;;;;;;;;13.60;13.60;;;;;26.09;33.99;99166.66;4926152;29;8871;-74
2023/07/03 11:06:53;;;;;;;;;15.40;14.80;;;;;25.51;34.35;99172.75;4912415;29;8977;-75
2023/07/03 11:09:33;;;;;;;;;12.60;11.60;;;;;25.95;33.93;99172.47;4927114;29;8859;-74
2023/07/03 11:12:13;;;;;;;;;13.40;12.80;;;;;26.59;34.09;99160.25;4926439;29;8901;-74
2023/07/03 11:14:52;;;;;;;;;13.80;13.80;;;;;26.64;33.13;99168.75;4912721;29;8891;-72
2023/07/03 11:17:31;;;;;;;;;13.20;12.60;;;;;26.97;32.89;99156.63;4912180;29;8910;-76
2023/07/03 11:20:08;;;;;;;;;12.20;12.20;;;;;26.69;32.20;99158.41;4910948;29;8871;-74
2023/07/03 11:22:47;;;;;;;;;13.60;12.60;;;;;26.81;31.94;99162.59;4912063;29;8875;-75
2023/07/03 11:25:24;;;;;;;;;20.60;20.60;;;;;27.47;31.57;99155.41;4911769;29;8871;-76
2023/07/03 11:28:04;;;;;;;;;11.00;11.00;;;;;26.82;32.60;99152.69;4912253;29;8887;-77
2023/07/03 11:30:35;;;;;;;;;13.00;12.00;;;;;26.80;32.11;99165.47;4908774;29;8883;-78
2023/07/03 11:33:05;;;;;;;;;11.00;11.00;;;;;26.80;31.92;99160.09;4911283;29;8895;-77
2023/07/03 11:35:34;;;;;;;;;12.20;12.20;;;;;27.67;31.32;99158.88;4904441;29;8871;-76
2023/07/03 11:38:09;;;;;;;;;12.40;12.00;;;;;26.84;31.55;99164.19;4899578;29;9023;-76
2023/07/03 11:41:02;;;;;;;;;11.00;10.40;;;;;26.84;31.75;99154.25;4912780;29;8903;-76
2023/07/03 11:43:34;;;;;;;;;11.20;11.20;;;;;26.88;31.34;99152.09;4910845;29;8871;-76